createdAt,value
2023-01-29T00:01:24.255Z,100885.28
2023-01-29T00:03:52.150Z,100892.16
2023-01-29T00:06:19.375Z,100887.84
2023-01-29T00:08:47.555Z,100895.88
2023-01-29T00:11:14.509Z,100892.34
2023-01-29T00:13:41.497Z,100904.81
2023-01-29T00:16:08.733Z,100895.19
2023-01-29T00:18:40.103Z,100903.06
2023-01-29T00:21:18.249Z,100901.41
2023-01-29T00:23:46.003Z,100901.06
2023-01-29T00:26:13.009Z,100901.09
2023-01-29T00:28:44.304Z,100902.28
2023-01-29T00:31:23.485Z,100915.06
2023-01-29T00:33:50.786Z,100915.66
2023-01-29T00:36:19.349Z,100904.56
2023-01-29T00:38:54.770Z,100911.84
2023-01-29T00:41:41.720Z,100904.72
2023-01-29T00:44:27.182Z,100902.72
2023-01-29T00:46:54.845Z,100904.06
2023-01-29T00:49:22.720Z,100905.47
2023-01-29T00:52:08.888Z,100902.34
2023-01-29T00:54:36.302Z,100887.91
2023-01-29T00:57:04.755Z,100907.69
2023-01-29T00:59:32.054Z,100915.00
2023-01-29T01:02:17.598Z,100896.91
2023-01-29T01:04:44.570Z,100892.00
2023-01-29T01:09:56.385Z,100890.28
2023-01-29T01:12:23.466Z,100883.25
2023-01-29T01:14:50.619Z,100905.00
2023-01-29T01:17:17.527Z,100907.47
2023-01-29T01:19:44.879Z,100898.16
2023-01-29T01:22:13.270Z,100905.84
2023-01-29T01:24:40.246Z,100894.69
2023-01-29T01:27:07.562Z,100900.28
2023-01-29T01:29:34.744Z,100901.41
2023-01-29T01:32:01.768Z,100910.34
2023-01-29T01:34:29.351Z,100908.00
2023-01-29T01:36:56.524Z,100920.31
2023-01-29T01:39:24.834Z,100913.31
2023-01-29T01:41:55.702Z,100915.19
2023-01-29T01:44:53.708Z,100921.69
2023-01-29T01:47:38.852Z,100920.03
2023-01-29T01:50:46.490Z,100913.31
2023-01-29T01:53:19.124Z,100927.75
2023-01-29T01:55:50.949Z,100933.66
2023-01-29T01:58:25.818Z,100932.19
2023-01-29T02:00:53.210Z,100941.09
2023-01-29T02:03:41.787Z,100936.22
2023-01-29T02:06:29.338Z,100943.31
2023-01-29T02:09:36.768Z,100944.31
2023-01-29T02:12:07.329Z,100948.88
2023-01-29T02:14:39.578Z,100947.59
2023-01-29T02:17:10.370Z,100952.88
2023-01-29T02:19:47.598Z,100937.44
2023-01-29T02:22:29.454Z,100946.81
2023-01-29T02:25:09.888Z,100942.56
2023-01-29T02:27:48.762Z,100943.94
2023-01-29T02:30:24.691Z,100940.75
2023-01-29T02:33:09.494Z,100933.59
2023-01-29T02:35:43.134Z,100920.59
2023-01-29T02:38:13.335Z,100919.88
2023-01-29T02:40:56.317Z,100900.16
2023-01-29T02:43:30.742Z,100894.50
2023-01-29T02:46:33.999Z,100883.16
2023-01-29T02:49:22.376Z,100893.16
2023-01-29T02:52:02.625Z,100884.69
2023-01-29T02:54:45.376Z,100881.75
2023-01-29T02:57:18.249Z,100896.84
2023-01-29T03:00:09.288Z,100898.22
2023-01-29T03:03:01.746Z,100898.56
2023-01-29T03:05:43.585Z,100899.97
2023-01-29T03:08:16.364Z,100902.22
2023-01-29T03:11:02.000Z,100898.81
2023-01-29T03:14:06.056Z,100889.97
2023-01-29T03:16:42.811Z,100886.50
2023-01-29T03:19:16.301Z,100896.47
2023-01-29T03:21:59.968Z,100894.81
2023-01-29T03:25:13.571Z,100877.25
2023-01-29T03:28:12.688Z,100900.91
2023-01-29T03:31:11.071Z,100884.44
2023-01-29T03:34:00.151Z,100896.31
2023-01-29T03:36:39.954Z,100878.78
2023-01-29T03:39:11.583Z,100894.22
2023-01-29T03:41:56.558Z,100893.81
2023-01-29T03:44:44.060Z,100906.81
2023-01-29T03:47:49.512Z,100903.34
2023-01-29T03:50:48.848Z,100910.34
2023-01-29T03:53:29.349Z,100907.97
2023-01-29T03:56:16.332Z,100915.41
2023-01-29T03:58:47.538Z,100917.44
2023-01-29T04:01:23.128Z,100924.84
2023-01-29T04:03:58.724Z,100922.75
2023-01-29T04:06:30.506Z,100934.59
2023-01-29T04:09:16.208Z,100921.59
2023-01-29T04:11:50.141Z,100928.41
2023-01-29T04:14:18.369Z,100922.59
2023-01-29T04:16:52.338Z,100916.59
2023-01-29T04:19:24.098Z,100940.25
2023-01-29T04:21:57.248Z,100945.19
2023-01-29T04:24:24.287Z,100948.69
2023-01-29T04:27:13.140Z,100960.22
2023-01-29T04:29:56.671Z,100964.38
2023-01-29T04:32:58.793Z,100975.31
2023-01-29T04:36:02.154Z,100984.63
2023-01-29T04:38:50.472Z,100985.28
2023-01-29T04:41:24.672Z,100986.16
2023-01-29T04:44:01.121Z,100991.78
2023-01-29T04:46:36.293Z,100992.22
2023-01-29T04:49:15.025Z,100995.88
2023-01-29T04:51:57.072Z,100993.88
2023-01-29T04:54:38.524Z,100997.16
2023-01-29T04:57:30.203Z,100995.13
2023-01-29T05:00:14.740Z,101002.00
2023-01-29T05:02:44.828Z,101006.88
2023-01-29T05:05:15.642Z,100998.41
2023-01-29T05:07:44.287Z,100998.97
2023-01-29T05:10:13.551Z,101005.63
2023-01-29T05:12:42.743Z,101005.47
2023-01-29T05:15:15.889Z,101014.97
2023-01-29T05:17:42.871Z,100998.25
2023-01-29T05:20:11.625Z,101006.38
2023-01-29T05:22:41.422Z,101005.19
2023-01-29T05:25:24.124Z,101015.66
2023-01-29T05:28:11.891Z,101002.34
2023-01-29T05:30:40.312Z,101004.41
2023-01-29T05:33:16.958Z,101005.66
2023-01-29T05:35:44.275Z,101006.94
2023-01-29T05:38:11.609Z,101003.97
2023-01-29T05:40:38.930Z,101018.84
2023-01-29T05:43:06.797Z,100997.41
2023-01-29T05:45:33.753Z,101014.91
2023-01-29T05:48:00.926Z,100999.88
2023-01-29T05:50:28.123Z,101026.56
2023-01-29T05:53:02.147Z,101037.78
2023-01-29T05:55:32.254Z,101036.78
2023-01-29T05:57:59.180Z,101034.63
2023-01-29T06:00:26.153Z,101052.50
2023-01-29T06:02:53.169Z,101049.63
2023-01-29T06:05:20.098Z,101044.75
2023-01-29T06:07:47.227Z,101055.16
2023-01-29T06:10:16.391Z,101060.41
2023-01-29T06:12:44.419Z,101073.78
2023-01-29T06:15:12.710Z,101075.19
2023-01-29T06:17:39.577Z,101067.22
2023-01-29T06:20:07.166Z,101078.31
2023-01-29T06:22:34.161Z,101070.97
2023-01-29T06:25:01.247Z,101085.06
2023-01-29T06:27:28.234Z,101086.50
2023-01-29T06:29:55.130Z,101081.91
2023-01-29T06:32:22.124Z,101086.84
2023-01-29T06:34:49.854Z,101092.41
2023-01-29T06:37:16.793Z,101085.81
2023-01-29T06:39:43.676Z,101096.06
2023-01-29T06:42:11.335Z,101103.25
2023-01-29T06:44:38.286Z,101090.28
2023-01-29T06:47:05.193Z,101090.41
2023-01-29T06:49:32.318Z,101098.88
2023-01-29T06:51:59.354Z,101089.59
2023-01-29T06:54:26.277Z,101094.47
2023-01-29T06:56:53.240Z,101081.69
2023-01-29T06:59:20.279Z,101097.38
2023-01-29T07:01:47.221Z,101098.22
2023-01-29T07:04:14.243Z,101089.09
2023-01-29T07:06:41.972Z,101101.25
2023-01-29T07:09:11.734Z,101103.91
2023-01-29T07:11:38.673Z,101095.84
2023-01-29T07:14:06.240Z,101090.53
2023-01-29T07:16:33.518Z,101081.84
2023-01-29T07:19:00.384Z,101092.81
2023-01-29T07:21:28.131Z,101094.88
2023-01-29T07:23:55.087Z,101097.75
2023-01-29T07:26:22.082Z,101098.66
2023-01-29T07:28:48.982Z,101098.31
2023-01-29T07:31:16.009Z,101091.59
2023-01-29T07:33:46.274Z,101105.16
2023-01-29T07:36:14.470Z,101098.66
2023-01-29T07:38:41.478Z,101099.38
2023-01-29T07:41:09.896Z,101102.59
2023-01-29T07:43:36.814Z,101125.72
2023-01-29T07:46:04.701Z,101123.06
2023-01-29T07:48:32.786Z,101128.47
2023-01-29T07:51:00.184Z,101133.28
2023-01-29T07:53:28.044Z,101128.59
2023-01-29T07:55:55.050Z,101135.34
2023-01-29T07:58:22.167Z,101117.63
2023-01-29T08:00:49.193Z,101125.56
2023-01-29T08:03:20.230Z,101133.16
2023-01-29T08:05:47.605Z,101132.44
2023-01-29T08:08:14.771Z,101134.47
2023-01-29T08:10:42.485Z,101140.25
2023-01-29T08:13:10.168Z,101126.66
2023-01-29T08:18:24.356Z,101132.72
2023-01-29T08:20:52.803Z,101136.63
2023-01-29T08:23:19.830Z,101155.41
2023-01-29T08:25:46.797Z,101155.72
2023-01-29T08:28:14.013Z,101156.13
2023-01-29T08:30:41.342Z,101146.09
2023-01-29T08:33:08.275Z,101167.38
2023-01-29T08:35:35.392Z,101158.56
2023-01-29T08:38:03.724Z,101162.06
2023-01-29T08:40:33.269Z,101168.78
2023-01-29T08:43:07.846Z,101163.69
2023-01-29T08:45:39.090Z,101160.78
2023-01-29T08:48:06.482Z,101147.25
2023-01-29T08:50:35.111Z,101164.47
2023-01-29T08:53:07.777Z,101153.47
2023-01-29T08:55:41.534Z,101145.97
2023-01-29T08:58:11.124Z,101139.69
2023-01-29T09:00:39.213Z,101156.16
2023-01-29T09:03:08.113Z,101160.09
2023-01-29T09:05:36.153Z,101164.41
2023-01-29T09:08:03.181Z,101161.06
2023-01-29T09:10:30.224Z,101164.31
2023-01-29T09:12:57.146Z,101157.63
2023-01-29T09:15:24.915Z,101153.94
2023-01-29T09:17:52.351Z,101159.00
2023-01-29T09:20:19.984Z,101164.81
2023-01-29T09:22:47.279Z,101159.03
2023-01-29T09:25:14.599Z,101157.03
2023-01-29T09:27:42.000Z,101153.59
2023-01-29T09:30:09.500Z,101135.94
2023-01-29T09:32:53.953Z,101149.75
2023-01-29T09:35:24.913Z,101157.09
2023-01-29T09:37:52.479Z,101155.97
2023-01-29T09:40:41.386Z,101148.38
2023-01-29T09:43:16.899Z,101154.09
2023-01-29T09:46:13.535Z,101148.97
2023-01-29T09:48:41.512Z,101145.72
2023-01-29T09:51:25.606Z,101134.50
2023-01-29T09:54:06.555Z,101141.81
2023-01-29T09:56:33.655Z,101148.81
2023-01-29T09:59:02.003Z,101141.25
2023-01-29T10:01:51.121Z,101145.78
2023-01-29T10:04:36.392Z,101142.28
2023-01-29T10:07:33.198Z,101144.19
2023-01-29T10:10:24.453Z,101141.91
2023-01-29T10:13:03.157Z,101127.94
2023-01-29T10:15:57.611Z,101144.97
2023-01-29T10:19:03.406Z,101145.19
2023-01-29T10:21:48.871Z,101129.09
2023-01-29T10:24:31.006Z,101137.94
2023-01-29T10:26:58.791Z,101143.53
2023-01-29T10:29:27.827Z,101127.41
2023-01-29T10:32:04.960Z,101128.78
2023-01-29T10:34:36.686Z,101136.38
2023-01-29T10:37:16.924Z,101123.44
2023-01-29T10:39:43.761Z,101134.75
2023-01-29T10:42:19.182Z,101131.59
2023-01-29T10:44:45.867Z,101128.97
2023-01-29T10:47:45.861Z,101133.31
2023-01-29T10:50:45.696Z,101128.91
2023-01-29T10:53:37.153Z,101127.19
2023-01-29T10:56:39.057Z,101116.84
2023-01-29T10:59:36.895Z,101128.41
2023-01-29T11:02:15.733Z,101131.78
2023-01-29T11:04:42.676Z,101134.16
2023-01-29T11:07:10.252Z,101121.53
2023-01-29T11:10:08.610Z,101138.75
2023-01-29T11:12:38.425Z,101126.78
2023-01-29T11:15:18.836Z,101124.47
2023-01-29T11:18:03.777Z,101130.50
2023-01-29T11:20:32.560Z,101132.75
2023-01-29T11:23:00.466Z,101132.69
2023-01-29T11:25:29.893Z,101121.66
2023-01-29T11:28:00.994Z,101131.22
2023-01-29T11:30:34.598Z,101121.72
2023-01-29T11:33:10.368Z,101116.13
2023-01-29T11:35:37.429Z,101124.66
2023-01-29T11:38:18.616Z,101115.03
2023-01-29T11:40:45.781Z,101129.09
2023-01-29T11:43:20.687Z,101124.09
2023-01-29T11:45:51.451Z,101124.06
2023-01-29T11:48:21.418Z,101125.91
2023-01-29T11:51:03.488Z,101124.00
2023-01-29T11:53:43.341Z,101128.03
2023-01-29T11:56:22.174Z,101127.13
2023-01-29T11:58:51.514Z,101119.91
2023-01-29T12:01:30.361Z,101122.44
2023-01-29T12:03:57.406Z,101107.16
2023-01-29T12:06:32.963Z,101111.25
2023-01-29T12:09:02.804Z,101105.13
2023-01-29T12:11:32.658Z,101122.56
2023-01-29T12:14:02.238Z,101112.00
2023-01-29T12:16:52.836Z,101116.75
2023-01-29T12:19:40.899Z,101120.81
2023-01-29T12:22:44.851Z,101115.66
2023-01-29T12:25:42.010Z,101132.75
2023-01-29T12:28:42.441Z,101120.94
2023-01-29T12:31:22.586Z,101118.63
2023-01-29T12:33:58.510Z,101127.91
2023-01-29T12:36:32.921Z,101125.31
2023-01-29T12:38:59.891Z,101135.59
2023-01-29T12:41:39.766Z,101131.91
2023-01-29T12:44:33.306Z,101134.16
2023-01-29T12:47:05.590Z,101144.00
2023-01-29T12:49:39.764Z,101140.13
2023-01-29T12:52:16.658Z,101138.50
2023-01-29T12:54:52.418Z,101140.78
2023-01-29T12:57:25.508Z,101145.00
2023-01-29T13:00:06.408Z,101143.94
2023-01-29T13:03:08.682Z,101138.63
2023-01-29T13:06:15.856Z,101146.34
2023-01-29T13:08:53.750Z,101141.81
2023-01-29T13:11:34.120Z,101151.16
2023-01-29T13:14:21.668Z,101149.00
2023-01-29T13:16:52.961Z,101152.91
2023-01-29T13:19:29.890Z,101164.56
2023-01-29T13:22:01.468Z,101157.38
2023-01-29T13:24:37.301Z,101164.41
2023-01-29T13:27:04.719Z,101166.34
2023-01-29T13:29:32.191Z,101162.38
2023-01-29T13:32:02.613Z,101162.81
2023-01-29T13:34:45.765Z,101165.66
2023-01-29T13:37:28.373Z,101163.28
2023-01-29T13:39:57.205Z,101163.69
2023-01-29T13:42:42.758Z,101160.69
2023-01-29T13:45:20.886Z,101177.03
2023-01-29T13:47:50.152Z,101166.00
2023-01-29T13:50:30.913Z,101168.38
2023-01-29T13:53:02.193Z,101176.13
2023-01-29T13:55:35.867Z,101173.31
2023-01-29T13:58:05.325Z,101167.91
2023-01-29T14:00:34.913Z,101170.56
2023-01-29T14:03:02.280Z,101168.25
2023-01-29T14:05:31.967Z,101168.72
2023-01-29T14:08:13.926Z,101170.31
2023-01-29T14:10:42.822Z,101176.03
2023-01-29T14:13:18.089Z,101182.09
2023-01-29T14:15:48.718Z,101182.06
2023-01-29T14:18:20.415Z,101182.50
2023-01-29T14:20:47.342Z,101179.22
2023-01-29T14:23:36.132Z,101178.97
2023-01-29T14:26:06.245Z,101192.88
2023-01-29T14:28:34.945Z,101187.78
2023-01-29T14:31:03.047Z,101182.09
2023-01-29T14:33:35.154Z,101183.34
2023-01-29T14:36:09.656Z,101188.97
2023-01-29T14:38:37.649Z,101189.50
2023-01-29T14:41:16.539Z,101193.53
2023-01-29T14:43:43.484Z,101210.19
2023-01-29T14:46:35.453Z,101205.44
2023-01-29T14:49:02.968Z,101197.59
2023-01-29T14:51:36.697Z,101195.63
2023-01-29T14:54:18.836Z,101196.78
2023-01-29T14:57:02.487Z,101197.38
2023-01-29T14:59:39.640Z,101193.13
2023-01-29T15:02:22.886Z,101192.63
2023-01-29T15:04:54.489Z,101194.69
2023-01-29T15:07:32.188Z,101198.44
2023-01-29T15:10:22.754Z,101202.81
2023-01-29T15:13:01.567Z,101196.16
2023-01-29T15:15:49.356Z,101202.41
2023-01-29T15:18:42.347Z,101203.09
2023-01-29T15:21:14.803Z,101199.09
2023-01-29T15:23:43.347Z,101202.34
2023-01-29T15:26:21.454Z,101206.69
2023-01-29T15:29:04.292Z,101210.63
2023-01-29T15:31:32.476Z,101212.41
2023-01-29T15:34:05.036Z,101219.97
2023-01-29T15:36:33.006Z,101231.00
2023-01-29T15:39:19.383Z,101227.31
2023-01-29T15:41:46.613Z,101230.25
2023-01-29T15:44:19.129Z,101237.69
2023-01-29T15:46:53.788Z,101237.09
2023-01-29T15:49:33.524Z,101238.63
2023-01-29T15:52:05.467Z,101246.44
2023-01-29T15:54:34.894Z,101244.91
2023-01-29T15:57:02.999Z,101251.09
2023-01-29T15:59:34.750Z,101247.31
2023-01-29T16:02:28.461Z,101240.88
2023-01-29T16:04:56.004Z,101244.25
2023-01-29T16:07:22.950Z,101247.56
2023-01-29T16:09:51.643Z,101241.34
2023-01-29T16:12:19.166Z,101253.25
2023-01-29T16:14:46.360Z,101246.94
2023-01-29T16:17:35.284Z,101249.44
2023-01-29T16:20:06.027Z,101256.81
2023-01-29T16:22:39.026Z,101252.72
2023-01-29T16:25:12.466Z,101268.22
2023-01-29T16:27:43.394Z,101262.84
2023-01-29T16:30:15.621Z,101262.59
2023-01-29T16:32:42.739Z,101258.34
2023-01-29T16:35:17.105Z,101262.66
2023-01-29T16:37:50.093Z,101250.47
2023-01-29T16:40:33.323Z,101267.94
2023-01-29T16:43:08.967Z,101268.59
2023-01-29T16:45:35.965Z,101263.78
2023-01-29T16:48:27.685Z,101268.63
2023-01-29T16:51:24.629Z,101264.91
2023-01-29T16:53:59.079Z,101262.34
2023-01-29T16:56:30.337Z,101265.06
2023-01-29T16:58:58.291Z,101267.81
2023-01-29T17:01:28.796Z,101269.34
2023-01-29T17:04:07.895Z,101260.03
2023-01-29T17:06:35.336Z,101272.25
2023-01-29T17:09:04.137Z,101267.38
2023-01-29T17:11:40.141Z,101269.72
2023-01-29T17:14:08.475Z,101263.91
2023-01-29T17:16:49.038Z,101269.19
2023-01-29T17:19:20.929Z,101268.06
2023-01-29T17:21:48.124Z,101262.59
2023-01-29T17:24:15.153Z,101270.13
2023-01-29T17:26:42.425Z,101266.00
2023-01-29T17:29:15.711Z,101261.84
2023-01-29T17:31:43.501Z,101265.94
2023-01-29T17:34:14.951Z,101270.34
2023-01-29T17:36:45.629Z,101273.84
2023-01-29T17:39:24.250Z,101262.34
2023-01-29T17:41:56.278Z,101256.44
2023-01-29T17:44:26.239Z,101262.84
2023-01-29T17:46:53.332Z,101257.16
2023-01-29T17:49:23.637Z,101265.28
2023-01-29T17:51:55.172Z,101268.31
2023-01-29T17:54:23.689Z,101264.28
2023-01-29T17:56:52.243Z,101267.06
2023-01-29T17:59:24.772Z,101271.94
2023-01-29T18:01:52.045Z,101272.16
2023-01-29T18:04:19.327Z,101273.31
2023-01-29T18:06:49.164Z,101275.28
2023-01-29T18:09:18.936Z,101271.94
2023-01-29T18:11:46.229Z,101261.00
2023-01-29T18:14:14.693Z,101265.19
2023-01-29T18:16:44.035Z,101273.59
2023-01-29T18:19:27.404Z,101263.88
2023-01-29T18:21:54.546Z,101273.38
2023-01-29T18:24:21.623Z,101274.75
2023-01-29T18:26:51.248Z,101267.81
2023-01-29T18:29:18.239Z,101262.47
2023-01-29T18:31:47.651Z,101263.75
2023-01-29T18:34:14.562Z,101260.13
2023-01-29T18:36:46.678Z,101258.72
2023-01-29T18:39:16.881Z,101256.53
2023-01-29T18:41:44.120Z,101259.28
2023-01-29T18:44:11.783Z,101259.59
2023-01-29T18:46:38.747Z,101254.25
2023-01-29T18:49:05.630Z,101256.22
2023-01-29T18:51:32.664Z,101261.63
2023-01-29T18:53:59.639Z,101251.91
2023-01-29T18:56:26.557Z,101256.81
2023-01-29T18:58:56.903Z,101255.56
2023-01-29T19:01:24.081Z,101261.47
2023-01-29T19:03:51.149Z,101261.47
2023-01-29T19:06:18.099Z,101259.72
2023-01-29T19:08:45.057Z,101263.28
2023-01-29T19:11:12.737Z,101260.50
2023-01-29T19:13:40.615Z,101257.13
2023-01-29T19:16:12.752Z,101258.47
2023-01-29T19:18:39.917Z,101247.72
2023-01-29T19:21:11.950Z,101255.34
2023-01-29T19:23:39.462Z,101254.66
2023-01-29T19:26:06.730Z,101261.25
2023-01-29T19:28:33.920Z,101252.72
2023-01-29T19:31:01.283Z,101253.47
2023-01-29T19:33:29.193Z,101259.28
2023-01-29T19:35:57.702Z,101258.72
2023-01-29T19:38:25.522Z,101252.97
2023-01-29T19:40:52.708Z,101252.13
2023-01-29T19:43:19.903Z,101263.06
2023-01-29T19:45:53.748Z,101261.31
2023-01-29T19:48:21.799Z,101247.38
2023-01-29T19:51:00.306Z,101259.16
2023-01-29T19:53:31.244Z,101259.91
2023-01-29T19:56:00.707Z,101251.63
2023-01-29T19:58:28.411Z,101259.09
2023-01-29T20:01:00.597Z,101257.56
2023-01-29T20:03:29.116Z,101256.72
2023-01-29T20:06:01.819Z,101253.31
2023-01-29T20:08:28.859Z,101255.63
2023-01-29T20:10:55.963Z,101255.97
2023-01-29T20:13:23.043Z,101251.38
2023-01-29T20:15:51.758Z,101256.84
2023-01-29T20:18:19.530Z,101253.34
2023-01-29T20:20:48.518Z,101252.97
2023-01-29T20:23:25.025Z,101258.69
2023-01-29T20:26:03.317Z,101259.53
2023-01-29T20:28:30.209Z,101263.47
2023-01-29T20:30:58.344Z,101258.19
2023-01-29T20:33:26.106Z,101261.75
2023-01-29T20:36:01.695Z,101262.59
2023-01-29T20:38:30.611Z,101249.34
2023-01-29T20:41:27.064Z,101259.41
2023-01-29T20:43:53.947Z,101255.28
2023-01-29T20:46:21.052Z,101258.81
2023-01-29T20:48:49.177Z,101254.00
2023-01-29T20:51:17.917Z,101239.47
2023-01-29T20:53:46.661Z,101248.06
2023-01-29T20:56:15.433Z,101248.19
2023-01-29T20:58:45.116Z,101242.06
2023-01-29T21:01:14.325Z,101240.47
2023-01-29T21:03:42.296Z,101251.75
2023-01-29T21:06:10.026Z,101252.47
2023-01-29T21:08:38.051Z,101252.44
2023-01-29T21:11:06.104Z,101245.00
2023-01-29T21:13:33.713Z,101246.13
2023-01-29T21:16:01.002Z,101246.94
2023-01-29T21:18:28.421Z,101254.22
2023-01-29T21:20:55.293Z,101250.44
2023-01-29T21:23:22.667Z,101255.75
2023-01-29T21:25:49.610Z,101257.72
2023-01-29T21:28:16.779Z,101261.53
2023-01-29T21:30:44.062Z,101261.34
2023-01-29T21:33:10.934Z,101261.75
2023-01-29T21:35:38.526Z,101261.28
2023-01-29T21:38:05.760Z,101264.38
2023-01-29T21:40:32.703Z,101259.69
2023-01-29T21:43:11.645Z,101261.94
2023-01-29T21:45:39.804Z,101266.69
2023-01-29T21:48:06.977Z,101259.41
2023-01-29T21:50:33.980Z,101260.13
2023-01-29T21:53:01.248Z,101262.47
2023-01-29T21:55:28.216Z,101249.53
2023-01-29T21:57:55.974Z,101263.81
2023-01-29T22:00:22.902Z,101246.59
2023-01-29T22:02:51.281Z,101241.16
2023-01-29T22:05:20.129Z,101248.19
2023-01-29T22:07:48.694Z,101236.56
2023-01-29T22:10:20.038Z,101231.34
2023-01-29T22:12:47.939Z,101222.16
2023-01-29T22:15:15.768Z,101224.63
2023-01-29T22:17:42.995Z,101217.84
2023-01-29T22:20:14.404Z,101221.06
2023-01-29T22:22:41.636Z,101212.72
2023-01-29T22:25:09.063Z,101214.03
2023-01-29T22:27:36.217Z,101221.38
2023-01-29T22:30:04.267Z,101210.59
2023-01-29T22:32:32.709Z,101218.69
2023-01-29T22:34:59.877Z,101208.59
2023-01-29T22:37:26.784Z,101214.31
2023-01-29T22:39:53.690Z,101219.44
2023-01-29T22:42:20.871Z,101222.69
2023-01-29T22:44:48.680Z,101224.09
2023-01-29T22:47:15.939Z,101224.81
2023-01-29T22:49:45.683Z,101241.25
2023-01-29T22:52:12.795Z,101234.53
2023-01-29T22:54:41.482Z,101216.03
2023-01-29T22:57:12.770Z,101223.00
2023-01-29T22:59:40.156Z,101219.50
2023-01-29T23:02:08.010Z,101225.22
2023-01-29T23:04:35.229Z,101225.00
2023-01-29T23:07:02.140Z,101223.97
2023-01-29T23:09:29.209Z,101222.03
2023-01-29T23:11:56.110Z,101224.06
2023-01-29T23:14:23.065Z,101229.81
2023-01-29T23:16:49.947Z,101225.28
2023-01-29T23:19:16.870Z,101224.00
2023-01-29T23:21:43.878Z,101228.88
2023-01-29T23:24:11.547Z,101225.97
2023-01-29T23:26:57.195Z,101222.41
2023-01-29T23:29:24.137Z,101224.88
2023-01-29T23:31:51.049Z,101217.50
2023-01-29T23:34:18.402Z,101220.28
2023-01-29T23:36:45.306Z,101214.63
2023-01-29T23:39:12.887Z,101213.44
2023-01-29T23:41:39.828Z,101214.13
2023-01-29T23:44:06.889Z,101223.09
2023-01-29T23:46:34.123Z,101216.81
2023-01-29T23:49:01.216Z,101215.31
2023-01-29T23:51:28.529Z,101214.31
2023-01-29T23:53:55.554Z,101208.50
2023-01-29T23:56:22.529Z,101207.72
2023-01-29T23:58:56.434Z,101208.59
